tititudorancea.com
Station Historical Data
 
Daily Summary for November 20, 2018 Units:  Metric    English   Both
« Previous Day
Next Day »
Daily Weekly Monthly Yearly Custom
  Current: High: Low: Average:
Temperature: 18 °C -17.8 °C 18 °C 21.7 °C
Dew Point: 13.7 °C -17.8 °C 7 °C 10.2 °C
Humidity: 76 % Humidity % 34 % 49 %
Wind Speed: 18.5 km/h 0 km/h 0 km/h 12.9 km/h
Wind Gust: 8.2 km/h 0 km/h - -
Wind:SW - - SSW
Pressure: 999.2 hPa 0 hPa 998.5 hPa -
Precipitation: 0.25 mm      
Historical Graphs
 
 
Ararat weather Find more about Weather in Ararat, AU


 



 


Tabular Data for November 20, 2018
Time Temperature Dew Point Pressure Wind Wind Speed Wind Gust Humidity Rainfall Rate (Hourly)
-17.8 °C -17.8 °C 0 hPa Calm     Humidity % 0 mm
00:04 23.7 °C 7.3 °C 1005.6 hPa NNE 9.3 km/h 4 km/h 35 % 0 mm
00:09 23.6 °C 7.2 °C 1005.3 hPa NNE 11.1 km/h 3.1 km/h 35 % 0 mm
00:14 23.4 °C 7.1 °C 1005.3 hPa NNE 9.3 km/h 4.2 km/h 35 % 0 mm
00:19 23.3 °C 7.4 °C 1005.3 hPa NNE 5.6 km/h 4.8 km/h 36 % 0 mm
00:24 23.2 °C 7.3 °C 1005 hPa NNE 5.6 km/h 3.5 km/h 36 % 0 mm
00:29 23.1 °C 7.2 °C 1005 hPa NNE 5.6 km/h 2.7 km/h 36 % 0 mm
00:34 23 °C 7.1 °C 1005 hPa NNE 5.6 km/h 4.2 km/h 36 % 0 mm
00:39 23 °C 7.5 °C 1005 hPa NNE 9.3 km/h 4 km/h 37 % 0 mm
00:44 23.1 °C 7.2 °C 1005 hPa NE 13 km/h 6.6 km/h 36 % 0 mm
00:49 23.3 °C 7.4 °C 1005 hPa NE 18.5 km/h 9.3 km/h 36 % 0 mm
00:54 23.6 °C 7.2 °C 1005 hPa NNE 18.5 km/h 10.9 km/h 35 % 0 mm
00:59 23.8 °C 7.4 °C 1005 hPa NNE 18.5 km/h 13 km/h 35 % 0 mm
01:04 23.9 °C 7.5 °C 1004.6 hPa NE 22.2 km/h 11.6 km/h 35 % 0 mm
01:09 24 °C 7.2 °C 1004.6 hPa NE 18.5 km/h 13 km/h 34 % 0 mm
01:14 24 °C 7.6 °C 1004.6 hPa NNE 24.1 km/h 12.6 km/h 35 % 0 mm
01:19 24 °C 7.6 °C 1004.6 hPa NNE 18.5 km/h 9.3 km/h 35 % 0 mm
01:24 23.9 °C 7.6 °C 1004.6 hPa NNE 16.7 km/h 7.9 km/h 35 % 0 mm
01:29 23.8 °C 7.4 °C 1004.6 hPa NE 16.7 km/h 8.9 km/h 35 % 0 mm
01:34 23.8 °C 7.4 °C 1004.3 hPa NNE 18.5 km/h 10.6 km/h 35 % 0 mm
01:39 23.7 °C 7.3 °C 1004.3 hPa NE 19.3 km/h 11.9 km/h 35 % 0 mm
01:44 23.7 °C 7.3 °C 1004.3 hPa NNE 20.4 km/h 10.6 km/h 35 % 0 mm
01:49 23.8 °C 7.4 °C 1004.3 hPa NE 16.7 km/h 10.1 km/h 35 % 0 mm
01:54 23.8 °C 7.4 °C 1004.3 hPa NNE 20.9 km/h 10.8 km/h 35 % 0 mm
01:59 23.8 °C 7.4 °C 1004.3 hPa NNE 17.7 km/h 11.9 km/h 35 % 0 mm
02:04 23.8 °C 7.4 °C 1004.3 hPa NE 19.3 km/h 12.4 km/h 35 % 0 mm
02:09 23.9 °C 7.5 °C 1004.3 hPa NNE 18.5 km/h 14.8 km/h 35 % 0 mm
02:14 24 °C 7.2 °C 1004.3 hPa NNE 27.8 km/h 12.4 km/h 34 % 0 mm
02:19 24 °C 7.6 °C 1004.6 hPa NNE 13 km/h 9 km/h 35 % 0 mm
02:24 23.9 °C 7.6 °C 1005.3 hPa WNW 20.4 km/h 17.2 km/h 35 % 0 mm
02:29 23.7 °C 7.3 °C 1005.3 hPa NW 31.5 km/h 20.3 km/h 35 % 0 mm
02:34 23.5 °C 7.2 °C 1005 hPa North 13 km/h 8.2 km/h 35 % 0 mm
02:39 23.5 °C 7.2 °C 1004.6 hPa NNE 25.9 km/h 12.4 km/h 35 % 0 mm
02:44 23.4 °C 7.1 °C 1004.3 hPa NNE 24.1 km/h 15.9 km/h 35 % 0 mm
02:49 23.6 °C 7.2 °C 1004.6 hPa North 13 km/h 10.5 km/h 35 % 0 mm
02:54 23.5 °C 7.2 °C 1004.6 hPa NNW 20.4 km/h 11.1 km/h 35 % 0 mm
02:59 23.4 °C 7.1 °C 1004.6 hPa North 18.5 km/h 8.9 km/h 35 % 0 mm
03:04 23.4 °C 7.5 °C 1004.6 hPa North 18.5 km/h 12.1 km/h 36 % 0 mm
03:09 23.4 °C 7.5 °C 1004.6 hPa North 20.4 km/h 13.5 km/h 36 % 0 mm
03:14 23.4 °C 7.5 °C 1004.6 hPa North 14.8 km/h 8.2 km/h 36 % 0 mm
03:19 23.3 °C 7.4 °C 1004.3 hPa North 13 km/h 7.7 km/h 36 % 0 mm
03:24 23 °C 7.5 °C 1004.3 hPa North 11.3 km/h 9.5 km/h 37 % 0 mm
03:29 22.8 °C 7.3 °C 1004.3 hPa North 13 km/h 7.9 km/h 37 % 0 mm
03:34 22.6 °C 7.1 °C 1004.3 hPa North 14.8 km/h 9.7 km/h 37 % 0 mm
03:39 22.4 °C 7 °C 1004.3 hPa North 14.5 km/h 8.4 km/h 37 % 0 mm
03:44 22.3 °C 7.3 °C 1004.3 hPa North 11.1 km/h 9 km/h 38 % 0 mm
03:49 22.3 °C 7.3 °C 1004.3 hPa North 14.8 km/h 10 km/h 38 % 0 mm
03:54 22.3 °C 7.7 °C 1003.9 hPa North 14.8 km/h 7.4 km/h 39 % 0 mm
03:59 22.3 °C 7.7 °C 1003.9 hPa NNE 14.8 km/h 9.2 km/h 39 % 0 mm
04:04 22.4 °C 7.7 °C 1003.9 hPa North 25.9 km/h 16.1 km/h 39 % 0 mm
04:09 22.5 °C 7.8 °C 1003.9 hPa NNE 20.4 km/h 16.4 km/h 39 % 0 mm
04:14 22.4 °C 8.2 °C 1003.6 hPa NNE 22.2 km/h 15.9 km/h 40 % 0 mm
04:19 22.3 °C 8.1 °C 1003.6 hPa NNE 20.4 km/h 9.2 km/h 40 % 0 mm
04:24 22.3 °C 8 °C 1003.6 hPa NE 20.4 km/h 15 km/h 40 % 0 mm
04:29 22.3 °C 8.4 °C 1003.6 hPa NNE 22.2 km/h 12.9 km/h 41 % 0 mm
04:34 22.3 °C 8.4 °C 1003.6 hPa NNE 31.5 km/h 18.3 km/h 41 % 0 mm
04:39 22.3 °C 8.4 °C 1003.3 hPa NE 9.7 km/h 6.9 km/h 41 % 0 mm
04:44 22.2 °C 8.3 °C 1003.3 hPa NNE 22.2 km/h 11.7 km/h 41 % 0 mm
04:49 22 °C 8.1 °C 1003.3 hPa NNE 20.4 km/h 12.1 km/h 41 % 0 mm
04:54 21.9 °C 8.4 °C 1003.3 hPa NNE 18.5 km/h 17.1 km/h 42 % 0 mm
04:59 21.8 °C 8.3 °C 1003.3 hPa NNE 14.8 km/h 8.2 km/h 42 % 0 mm
05:04 21.8 °C 8.3 °C 1003.3 hPa NNE 18.5 km/h 16.7 km/h 42 % 0 mm
05:09 21.7 °C 8.2 °C 1003.3 hPa NNE 19.3 km/h 12.1 km/h 42 % 0 mm
05:14 21.7 °C 8.6 °C 1003.6 hPa NNE 14.8 km/h 5.3 km/h 43 % 0 mm
05:19 21.7 °C 8.6 °C 1003.6 hPa North 11.1 km/h 6.1 km/h 43 % 0 mm
05:24 21.8 °C 8.7 °C 1003.6 hPa NNW 18.5 km/h 6.1 km/h 43 % 0 mm
05:29 21.9 °C 8.7 °C 1003.6 hPa NNW 14.8 km/h 6.8 km/h 43 % 0 mm
05:34 21.9 °C 8.7 °C 1003.6 hPa North 13 km/h 7.7 km/h 43 % 0 mm
05:39 21.8 °C 8.7 °C 1003.9 hPa North 18.5 km/h 6.8 km/h 43 % 0 mm
05:44 21.7 °C 8.6 °C 1003.9 hPa North 9.3 km/h 5.3 km/h 43 % 0 mm
05:49 21.6 °C 8.8 °C 1003.9 hPa North 11.1 km/h 8 km/h 44 % 0 mm
05:54 21.4 °C 8.6 °C 1003.9 hPa North 7.4 km/h 7.2 km/h 44 % 0 mm
05:59 21.3 °C 8.6 °C 1003.9 hPa North 13 km/h 7.7 km/h 44 % 0 mm
06:04 21.2 °C 8.5 °C 1004.3 hPa NNW 9.3 km/h 9.7 km/h 44 % 0 mm
06:09 21.1 °C 8.4 °C 1004.3 hPa NNW 9.3 km/h 8.7 km/h 44 % 0 mm
06:14 21 °C 8.6 °C 1004.3 hPa NNW 9.3 km/h 8 km/h 45 % 0 mm
06:19 20.9 °C 8.2 °C 1004.3 hPa NNW 11.1 km/h 8.7 km/h 44 % 0 mm
06:24 20.9 °C 8.2 °C 1004.3 hPa NNW 9.7 km/h 7.2 km/h 44 % 0 mm
06:29 21 °C 8.3 °C 1004.3 hPa NNW 9.3 km/h 6.4 km/h 44 % 0 mm
06:34 20.9 °C 8.2 °C 1004.3 hPa NNW 7.4 km/h 4.7 km/h 44 % 0 mm
06:39 20.9 °C 8.2 °C 1004.3 hPa NNW 13 km/h 6.4 km/h 44 % 0 mm
06:44 20.8 °C 8.4 °C 1004.3 hPa NNW 13 km/h 8.7 km/h 45 % 0 mm
06:49 20.7 °C 8.3 °C 1004.3 hPa NNW 9.3 km/h 6.1 km/h 45 % 0 mm
06:54 20.6 °C 8.6 °C 1004.3 hPa NNW 5.6 km/h 4.2 km/h 46 % 0 mm
06:59 20.4 °C 8.4 °C 1004.3 hPa North 3.7 km/h 1.3 km/h 46 % 0 mm
07:04 20.3 °C 8.3 °C 1004.6 hPa NNW 5.6 km/h 2.7 km/h 46 % 0 mm
07:09 20.3 °C 8.6 °C 1004.6 hPa NNW 5.6 km/h 2.4 km/h 47 % 0 mm
07:14 20.3 °C 8.6 °C 1004.6 hPa NNW 7.4 km/h 5.3 km/h 47 % 0 mm
07:19 20.3 °C 8.7 °C 1004.6 hPa NNW 5.6 km/h 3.1 km/h 47 % 0 mm
07:24 20.3 °C 8.9 °C 1004.6 hPa NNW 5.6 km/h 4.8 km/h 48 % 0 mm
07:29 20.3 °C 8.9 °C 1004.6 hPa North 5.6 km/h 2.7 km/h 48 % 0 mm
07:34 20.3 °C 8.9 °C 1004.3 hPa NNW 5.6 km/h 2.1 km/h 48 % 0 mm
07:39 20.3 °C 9.3 °C 1004.3 hPa NNW 3.7 km/h 2.4 km/h 49 % 0 mm
07:44 20.4 °C 9 °C 1004.3 hPa NNW 5.6 km/h 2.7 km/h 48 % 0 mm
07:49 20.4 °C 9.1 °C 1004.3 hPa North 3.7 km/h   48 % 0 mm
07:54 20.5 °C 9.4 °C 1004.3 hPa North 3.7 km/h 2.9 km/h 49 % 0 mm
07:59 20.6 °C 9.4 °C 1004.3 hPa North 5.6 km/h 2.7 km/h 49 % 0 mm
08:04 20.7 °C 9.6 °C 1004.3 hPa North 7.4 km/h 3.9 km/h 49 % 0 mm
08:09 20.8 °C 9.4 °C 1004.3 hPa NNW 5.6 km/h 1.6 km/h 48 % 0 mm
08:14 21 °C 9.6 °C 1004.3 hPa NNW 5.6 km/h 0.2 km/h 48 % 0 mm
08:19 21.1 °C 9.7 °C 1004.3 hPa NNW 5.6 km/h 3.7 km/h 48 % 0 mm
08:24 21.2 °C 10 °C 1004.3 hPa NNW 3.7 km/h 2.1 km/h 49 % 0 mm
08:29 21.2 °C 10.1 °C 1004.3 hPa NNW 3.2 km/h 1.4 km/h 49 % 0 mm
08:34 21.3 °C 10.1 °C 1004.3 hPa NNW 5.6 km/h 4.2 km/h 49 % 0 mm
08:39 21.4 °C 10.2 °C 1003.9 hPa NNW 5.6 km/h 3.9 km/h 49 % 0 mm
08:44 21.4 °C 10 °C 1003.9 hPa North 6.4 km/h 5.6 km/h 48 % 0 mm
08:49 21.5 °C 9.7 °C 1004.3 hPa NNW 11.1 km/h 7.6 km/h 47 % 0 mm
08:54 21.6 °C 9.8 °C 1004.3 hPa North 9.3 km/h 6.3 km/h 47 % 0 mm
08:59 21.6 °C 9.8 °C 1004.3 hPa North 8 km/h 5.3 km/h 47 % 0 mm
09:04 21.7 °C 9.8 °C 1004.6 hPa North 5.6 km/h 4.7 km/h 47 % 0 mm
09:09 21.7 °C 10.2 °C 1004.3 hPa NNW 5.6 km/h 4.2 km/h 48 % 0 mm
09:14 21.8 °C 10.3 °C 1004.3 hPa NNW 9.3 km/h 6.1 km/h 48 % 0 mm
09:19 21.9 °C 10.4 °C 1003.9 hPa NNW 5.6 km/h 4.5 km/h 48 % 0 mm
09:24 22 °C 10.2 °C 1003.9 hPa NNW 7.4 km/h 5 km/h 47 % 0 mm
09:29 22 °C 9.8 °C 1003.6 hPa NNW 11.1 km/h 3.9 km/h 46 % 0 mm
09:34 22.1 °C 10.2 °C 1003.3 hPa North 9.3 km/h 7.6 km/h 47 % 0 mm
09:39 22.1 °C 10.2 °C 1003.3 hPa North 9.3 km/h 3.9 km/h 47 % 0 mm
09:44 22 °C 10.5 °C 1004.3 hPa North 17.7 km/h 12.4 km/h 48 % 0 mm
09:49 22 °C 10.2 °C 1003.9 hPa WNW 11.1 km/h 6 km/h 47 % 0 mm
09:54 22.1 °C 9.9 °C 1003.3 hPa WNW 5.6 km/h 2.4 km/h 46 % 0 mm
09:59 22.3 °C 10.1 °C 1003.3 hPa WNW 5.6 km/h   46 % 0 mm
10:04 22.3 °C 10.4 °C 1003.9 hPa WNW 9.7 km/h 7.4 km/h 47 % 0 mm
10:09 22.4 °C 10.2 °C 1003.6 hPa NW 8 km/h 4.7 km/h 46 % 0 mm
10:14 22.4 °C 10.2 °C 1002.9 hPa NNE 8 km/h 8.2 km/h 46 % 0 mm
10:19 22.4 °C 10.2 °C 1001.9 hPa ESE 18.5 km/h 11.4 km/h 46 % 0 mm
10:24 22.5 °C 10.3 °C 1001.6 hPa East 16.1 km/h 10.3 km/h 46 % 0 mm
10:29 22.5 °C 10.3 °C 1001.2 hPa ESE 12.9 km/h 6.6 km/h 46 % 0 mm
10:34 22.6 °C 10.7 °C 1001.9 hPa ESE 13 km/h 4.3 km/h 47 % 0 mm
10:39 22.7 °C 10.5 °C 1001.9 hPa East 9.7 km/h 8 km/h 46 % 0 mm
10:44 22.9 °C 10.3 °C 1001.9 hPa East 11.1 km/h 5.1 km/h 45 % 0 mm
10:49 23.1 °C 10.5 °C 1001.9 hPa East 8 km/h 2.9 km/h 45 % 0 mm
10:54 23.3 °C 10.3 °C 1002.3 hPa East 6.4 km/h 5.5 km/h 44 % 0 mm
10:59 23.4 °C 10.5 °C 1002.3 hPa NNE 11.3 km/h 9.8 km/h 44 % 0 mm
11:04 23.3 °C 10.1 °C 1002.3 hPa NE 20.4 km/h 9 km/h 43 % 0 mm
11:09 23.2 °C 10.3 °C 1002.3 hPa NE 11.1 km/h 4.8 km/h 44 % 0 mm
11:14 23.3 °C 10.3 °C 1002.3 hPa NE 5.6 km/h 5.5 km/h 44 % 0 mm
11:19 23.3 °C 10.4 °C 1001.9 hPa NE 11.1 km/h 6.1 km/h 44 % 0 mm
11:24 23.4 °C 10.8 °C 1001.9 hPa NE 7.4 km/h 2.3 km/h 45 % 0 mm
11:29 23.5 °C 10.6 °C 1001.9 hPa NE 9.3 km/h 6.4 km/h 44 % 0 mm
11:34 23.6 °C 10.7 °C 1001.9 hPa NE 7.4 km/h 6.1 km/h 44 % 0 mm
11:39 23.6 °C 10.7 °C 1001.6 hPa NE 7.4 km/h 3.4 km/h 44 % 0 mm
11:44 23.7 °C 10.7 °C 1001.6 hPa NE 6.4 km/h 3.9 km/h 44 % 0 mm
11:49 23.9 °C 10.9 °C 1001.6 hPa NE 5.6 km/h 3.4 km/h 44 % 0 mm
11:54 24.1 °C 10.7 °C 1001.2 hPa NE 3.7 km/h 0.6 km/h 43 % 0 mm
11:59 24.2 °C 10.8 °C 1001.2 hPa NE 7.4 km/h 5.1 km/h 43 % 0 mm
12:04 24.2 °C 10.8 °C 1001.2 hPa NE 3.7 km/h 0.8 km/h 43 % 0 mm
12:09 24.2 °C 10.8 °C 1001.2 hPa Calm     43 % 0 mm
12:14 24.4 °C 11.1 °C 1000.9 hPa NE 3.2 km/h 2.1 km/h 43 % 0 mm
12:19 24.6 °C 11.2 °C 1001.6 hPa NE 9.7 km/h 6.4 km/h 43 % 0 mm
12:24 24.1 °C 11.1 °C 1002.3 hPa WNW 18.5 km/h 16.1 km/h 44 % 0 mm
12:29 23.7 °C 10.7 °C 1001.9 hPa WNW 20.4 km/h 16.1 km/h 44 % 0 mm
12:34 23.2 °C 11.2 °C 1001.9 hPa West 18.5 km/h 14.5 km/h 47 % 0 mm
12:39 22.3 °C 12 °C 1001.9 hPa West 18.5 km/h 13.2 km/h 52 % 0 mm
12:44 21.8 °C 12.3 °C 1001.6 hPa West 5.6 km/h 1.8 km/h 55 % 0 mm
12:49 21.5 °C 12.6 °C 1001.9 hPa North 13 km/h 6.8 km/h 57 % 0 mm
12:54 21.4 °C 12.8 °C 1001.6 hPa West 13 km/h 7.9 km/h 58 % 0 mm
12:59 21.3 °C 12.9 °C 1001.9 hPa North 14.8 km/h 9.3 km/h 59 % 0 mm
13:04 21.3 °C 12.4 °C 1001.6 hPa North 13 km/h 9.3 km/h 57 % 0 mm
13:09 21.3 °C 12.4 °C 1001.9 hPa West 14.8 km/h 11.1 km/h 57 % 0 mm
13:14 21.3 °C 12.4 °C 1002.3 hPa West 13 km/h 10.9 km/h 57 % 0 mm
13:19 21.2 °C 13.2 °C 1001.9 hPa West 3.2 km/h 1.8 km/h 60 % 0 mm
13:24 20.9 °C 14.1 °C 1001.6 hPa West 6.4 km/h 5 km/h 65 % 0 mm
13:29 20.5 °C 14.2 °C 1001.6 hPa West 9.3 km/h 5 km/h 67 % 0.25 mm
13:34 20.4 °C 14.3 °C 1001.6 hPa West 8 km/h 5.3 km/h 68 % 0.25 mm
13:39 20.4 °C 13.7 °C 1001.6 hPa West 13 km/h 8.2 km/h 65 % 0.25 mm
13:44 20.8 °C 13.7 °C 1001.9 hPa West 9.3 km/h 6.6 km/h 64 % 0.25 mm
13:49 21.1 °C 13.6 °C 1001.9 hPa West 7.4 km/h 3.4 km/h 62 % 0.25 mm
13:54 21.4 °C 13.6 °C 1001.9 hPa West 5.6 km/h 2.3 km/h 61 % 0.25 mm
13:59 21.6 °C 13.3 °C 1001.9 hPa West 5.6 km/h 1.6 km/h 59 % 0.25 mm
14:04 21.7 °C 13.3 °C 1001.9 hPa West 8 km/h 5.1 km/h 59 % 0.25 mm
14:09 21.1 °C 13.1 °C 1001.9 hPa SSW 13 km/h 9.7 km/h 60 % 0.25 mm
14:14 20.1 °C 13.1 °C 1001.9 hPa SSW 13 km/h 9.5 km/h 64 % 0.25 mm
14:19 19.6 °C 13.1 °C 1001.9 hPa SSW 18.5 km/h 12.2 km/h 66 % 0.25 mm
14:24 19.3 °C 13.2 °C 1001.9 hPa South 17.7 km/h 14.8 km/h 68 % 0.25 mm
14:29 19.2 °C 13.6 °C 1001.6 hPa SSW 16.7 km/h 11.1 km/h 70 % 0 mm
14:34 19.2 °C 13.8 °C 1001.2 hPa South 7.4 km/h 7.7 km/h 71 % 0 mm
14:39 19.2 °C 13.8 °C 1001.2 hPa South 16.1 km/h 11.9 km/h 71 % 0 mm
14:44 19.2 °C 13.8 °C 1000.9 hPa South 13 km/h 8.9 km/h 71 % 0 mm
14:49 19.3 °C 13.7 °C 1000.9 hPa SSE 16.7 km/h 5.1 km/h 70 % 0 mm
14:54 19.5 °C 13.9 °C 1000.9 hPa South 13 km/h 10.1 km/h 70 % 0 mm
14:59 19.6 °C 13.7 °C 1000.9 hPa South 16.7 km/h 9.8 km/h 69 % 0 mm
15:04 19.6 °C 13.8 °C 1000.9 hPa South 14.8 km/h 12.7 km/h 69 % 0 mm
15:09 19.8 °C 14.2 °C 1000.6 hPa SSE 16.7 km/h 11.4 km/h 70 % 0 mm
15:14 19.8 °C 13.7 °C 1000.6 hPa South 18.5 km/h 8.5 km/h 68 % 0 mm
15:19 19.9 °C 14.1 °C 1000.6 hPa SSE 14.8 km/h 11.7 km/h 69 % 0 mm
15:24 19.9 °C 13.6 °C 1000.6 hPa South 16.1 km/h 12.9 km/h 67 % 0 mm
15:29 20.2 °C 14.1 °C 1000.6 hPa South 18.5 km/h 7.1 km/h 68 % 0 mm
15:34 20.6 °C 14.5 °C 1000.2 hPa South 14.8 km/h 12.4 km/h 68 % 0 mm
15:39 21.1 °C 14.7 °C 1000.2 hPa SSE 16.1 km/h 13.2 km/h 67 % 0 mm
15:44 21.1 °C 14.2 °C 999.9 hPa SSE 13 km/h 7.2 km/h 65 % 0 mm
15:49 21.1 °C 14 °C 999.5 hPa SSE 18.5 km/h 15.4 km/h 64 % 0 mm
15:54 21 °C 14.2 °C 999.5 hPa SSE 13 km/h 10 km/h 65 % 0 mm
15:59 21 °C 14.2 °C 999.2 hPa SSE 18.5 km/h 11.3 km/h 65 % 0 mm
16:04 21.2 °C 14.1 °C 999.2 hPa South 14.8 km/h 12.6 km/h 64 % 0 mm
16:09 21.2 °C 13.8 °C 999.2 hPa South 9.7 km/h 12.1 km/h 63 % 0 mm
16:14 21.4 °C 13.6 °C 999.2 hPa South 16.7 km/h 13.4 km/h 61 % 0 mm
16:19 21.7 °C 14.1 °C 998.9 hPa SSE 11.3 km/h 9.7 km/h 62 % 0 mm
16:24 22.1 °C 14 °C 998.5 hPa SSE 16.7 km/h 10.1 km/h 60 % 0 mm
16:29 22 °C 13.6 °C 998.9 hPa SSW 20.4 km/h 17.2 km/h 59 % 0 mm
16:34 21.9 °C 14.1 °C 998.9 hPa South 13 km/h 11.7 km/h 61 % 0 mm
16:39 22.2 °C 14.3 °C 998.9 hPa South 16.7 km/h 8.7 km/h 61 % 0 mm
16:44 22.6 °C 13.9 °C 998.9 hPa SSE 18.5 km/h 7.2 km/h 58 % 0 mm
16:49 22.5 °C 14.1 °C 998.9 hPa South 16.7 km/h 11.6 km/h 59 % 0 mm
16:54 22.2 °C 13.8 °C 998.9 hPa South 16.7 km/h 10.8 km/h 59 % 0 mm
16:59 22.1 °C 14 °C 998.9 hPa South 13 km/h 8.4 km/h 60 % 0 mm
17:04 22.1 °C 13.4 °C 998.9 hPa South 14.8 km/h 10.6 km/h 58 % 0 mm
17:09 22.1 °C 13.4 °C 998.9 hPa South 13 km/h 7.7 km/h 58 % 0 mm
17:14 22.1 °C 13.4 °C 998.9 hPa SSW 8 km/h 8.4 km/h 58 % 0 mm
17:19 22.1 °C 13.4 °C 999.2 hPa SSW 13 km/h 8.4 km/h 58 % 0 mm
17:24 21.7 °C 13.3 °C 999.2 hPa SSW 20.4 km/h 9.2 km/h 59 % 0 mm
17:29 21.6 °C 13.2 °C 998.9 hPa SSW 13 km/h 9.5 km/h 59 % 0 mm
17:34 21.4 °C 13.1 °C 999.2 hPa SSW 11.1 km/h 3.7 km/h 59 % 0 mm
17:39 21.4 °C 13.1 °C 998.9 hPa SW 18.5 km/h 13 km/h 59 % 0 mm
17:44 21.3 °C 13.2 °C 998.9 hPa SW 16.7 km/h 10.8 km/h 60 % 0 mm
17:49 21.1 °C 13.3 °C 999.2 hPa SW 11.1 km/h 7.7 km/h 61 % 0 mm
17:54 20.9 °C 13.3 °C 998.9 hPa WSW 20.4 km/h 14.2 km/h 62 % 0 mm
17:59 20.5 °C 13.2 °C 998.9 hPa SW 22.2 km/h 15.4 km/h 63 % 0 mm
18:04 20.1 °C 13.3 °C 999.2 hPa SW 18.5 km/h 9.3 km/h 65 % 0 mm
18:09 19.8 °C 13.4 °C 999.2 hPa SSW 20.4 km/h 16.4 km/h 67 % 0 mm
18:14 19.2 °C 13.6 °C 999.2 hPa SSW 25.9 km/h 9.8 km/h 70 % 0 mm
18:19 18.9 °C 13.6 °C 999.2 hPa SSW 13 km/h 10 km/h 71 % 0 mm
18:24 18.8 °C 13.8 °C 999.2 hPa SSW 7.4 km/h 4.7 km/h 73 % 0 mm
18:29 18.6 °C 13.8 °C 999.2 hPa SSW 11.1 km/h 8.7 km/h 74 % 0 mm
18:34 18.3 °C 13.8 °C 999.2 hPa SSW 11.1 km/h 7.6 km/h 75 % 0 mm
18:39 18 °C 13.7 °C 999.2 hPa SW 18.5 km/h 8.2 km/h 76 % 0 mm
Ararat Weather
Compliments of Weather Underground - 2 mb
Click here to send mail.


ABOUT

Live weather data from Ararat, Victoria, Australia, 3377
Data uploaded from Cumulus every 5 minutes to Weather Underground.
This site then downloads the raw data for formatting and display.
Metric and imperial data can be displayed. Graphs and historical data available.
Includes Sun and Moon times and rain image live from BOM.

Check out Ararat Weather on Facebook, Twitter and Google +

Help support ongoing costs by checking out the ads





Follow @AraratWeather